Station History

Weather Underground - logo

Station Historical Data
Daily Summary for October 11, 2017 Units:  English    Metric   Both
« Previous Day
Next Day »
Daily Weekly Monthly Yearly Custom
  High: Low: Average:
Temperature: 79.9 °F 47.2 °F 65.1 °F
Dew Point: 48.7 °F 39.7 °F 44.4 °F
Humidity: 83 % 25 % 51 %
Wind Speed: 6.0 mph 0.0 mph 1.7 mph
Wind Gust: 6.0 mph - -
Wind:- - SW
Pressure: 29.95 in 29.81 in -
Precipitation: 0.00 in    
Historical Graphs
 
 
Tabular Data for October 11, 2017
Time Temperature Dew Point Pressure Wind Wind Speed Wind Gust Humidity Rainfall Rate (Hourly)
03:26 53.2 °F 42.5 °F 29.82 in Calm     67 % 0.00 in
03:31 52.9 °F 43.4 °F 29.82 in Calm     70 % 0.00 in
03:36 52.7 °F 42.4 °F 29.82 in Calm     68 % 0.00 in
03:41 52.7 °F 42.8 °F 29.82 in Calm     69 % 0.00 in
03:46 52.2 °F 42.3 °F 29.82 in Calm     69 % 0.00 in
03:51 52.2 °F 41.2 °F 29.82 in Calm     66 % 0.00 in
03:56 52.3 °F 39.7 °F 29.82 in Calm     62 % 0.00 in
04:01 52.3 °F 39.7 °F 29.81 in Calm     62 % 0.00 in
04:06 52.5 °F 41.1 °F 29.81 in Calm     65 % 0.00 in
04:11 52.6 °F 41.9 °F 29.82 in Calm     67 % 0.00 in
04:16 52.1 °F 41.9 °F 29.81 in Calm     68 % 0.00 in
04:21 51.9 °F 42.4 °F 29.81 in Calm     70 % 0.00 in
04:26 51.8 °F 41.9 °F 29.81 in Calm     69 % 0.00 in
04:31 51.6 °F 42.5 °F 29.81 in Calm     71 % 0.00 in
04:36 51.4 °F 43.0 °F 29.81 in Calm     73 % 0.00 in
04:41 50.6 °F 41.2 °F 29.82 in Calm     70 % 0.00 in
04:46 49.4 °F 40.7 °F 29.82 in Calm     72 % 0.00 in
04:51 48.9 °F 41.0 °F 29.82 in Calm     74 % 0.00 in
04:56 48.7 °F 40.8 °F 29.82 in Calm     74 % 0.00 in
05:01 48.6 °F 40.7 °F 29.82 in Calm     74 % 0.00 in
05:06 48.6 °F 40.7 °F 29.82 in Calm     74 % 0.00 in
05:11 48.7 °F 40.8 °F 29.82 in Calm     74 % 0.00 in
05:21 49.3 °F 42.4 °F 29.82 in Calm   0.1 mph 77 % 0.00 in
05:26 48.8 °F 41.6 °F 29.82 in Calm     76 % 0.00 in
05:31 48.1 °F 40.9 °F 29.82 in Calm     76 % 0.00 in
05:36 47.7 °F 40.5 °F 29.82 in Calm     76 % 0.00 in
05:41 47.5 °F 41.0 °F 29.83 in Calm     78 % 0.00 in
05:47 47.5 °F 40.6 °F 29.83 in Calm     77 % 0.00 in
05:52 47.9 °F 41.0 °F 29.83 in Calm     77 % 0.00 in
05:57 48.3 °F 41.1 °F 29.83 in Calm     76 % 0.00 in
06:02 48.4 °F 41.5 °F 29.83 in East 1.2 mph   77 % 0.00 in
06:07 48.5 °F 41.3 °F 29.83 in Calm     76 % 0.00 in
06:12 48.7 °F 43.8 °F 29.83 in Calm     83 % 0.00 in
06:17 48.4 °F 42.2 °F 29.83 in Calm     79 % 0.00 in
06:22 48.4 °F 42.2 °F 29.83 in Calm     79 % 0.00 in
06:27 48.4 °F 42.8 °F 29.83 in Calm     81 % 0.00 in
06:32 48.0 °F 42.1 °F 29.84 in Calm     80 % 0.00 in
06:37 47.7 °F 42.2 °F 29.84 in Calm     81 % 0.00 in
06:42 47.5 °F 42.3 °F 29.84 in Calm     82 % 0.00 in
06:47 47.5 °F 42.0 °F 29.84 in Calm     81 % 0.00 in
06:52 47.4 °F 41.9 °F 29.84 in Calm     81 % 0.00 in
06:57 47.4 °F 41.9 °F 29.85 in Calm     81 % 0.00 in
07:02 47.2 °F 41.0 °F 29.85 in Calm     79 % 0.00 in
07:07 47.2 °F 41.0 °F 29.85 in Calm     79 % 0.00 in
07:13 47.5 °F 40.6 °F 29.85 in East 1.2 mph   77 % 0.00 in
07:18 47.8 °F 40.3 °F 29.85 in East 2.3 mph 2.3 mph 75 % 0.00 in
07:23 48.1 °F 40.9 °F 29.85 in East 1.2 mph 1.2 mph 76 % 0.00 in
07:28 48.3 °F 40.4 °F 29.85 in East 1.2 mph 1.2 mph 74 % 0.00 in
07:33 48.8 °F 40.5 °F 29.85 in East 2.3 mph 2.3 mph 73 % 0.00 in
07:38 49.1 °F 40.8 °F 29.85 in East 2.3 mph 2.3 mph 73 % 0.00 in
07:43 49.2 °F 40.6 °F 29.86 in East 1.2 mph 1.2 mph 72 % 0.00 in
07:44 49.3 °F 40.7 °F 29.86 in East 1.0 mph 1.0 mph 72 % 0.00 in
07:49 49.7 °F 41.0 °F 29.86 in East 1.2 mph 1.2 mph 72 % 0.00 in
07:50 49.8 °F 40.8 °F 29.86 in East 2.3 mph 2.3 mph 71 % 0.00 in
07:55 50.5 °F 40.3 °F 29.86 in East 3.5 mph 3.5 mph 68 % 0.00 in
08:00 51.6 °F 40.2 °F 29.86 in East 2.3 mph 2.3 mph 65 % 0.00 in
08:05 52.5 °F 40.7 °F 29.87 in East 3.5 mph 3.5 mph 64 % 0.00 in
08:10 54.0 °F 41.3 °F 29.86 in East 3.5 mph 3.5 mph 62 % 0.00 in
08:15 55.7 °F 42.0 °F 29.87 in ESE 2.3 mph 2.3 mph 60 % 0.00 in
08:17 56.2 °F 42.5 °F 29.87 in SE 1.2 mph 1.2 mph 60 % 0.00 in
08:22 57.4 °F 43.2 °F 29.87 in Calm     59 % 0.00 in
08:32 59.2 °F 44.4 °F 29.87 in South 1.2 mph 1.2 mph 58 % 0.00 in
08:37 60.3 °F 45.5 °F 29.87 in Calm     58 % 0.00 in
08:40 60.8 °F 45.0 °F 29.88 in Calm     56 % 0.00 in
08:45 61.5 °F 45.2 °F 29.88 in South 1.2 mph   55 % 0.00 in
08:50 62.1 °F 45.2 °F 29.88 in Calm     54 % 0.00 in
08:55 62.0 °F 44.7 °F 29.88 in West 1.2 mph 1.2 mph 53 % 0.00 in
09:00 61.7 °F 44.4 °F 29.89 in Calm   0.7 mph 53 % 0.00 in
09:05 61.7 °F 44.4 °F 29.89 in NE 1.2 mph 1.2 mph 53 % 0.00 in
09:10 62.0 °F 45.2 °F 29.89 in WNW 1.2 mph 1.2 mph 54 % 0.00 in
09:15 62.4 °F 45.0 °F 29.89 in WNW 2.3 mph 2.3 mph 53 % 0.00 in
09:20 62.8 °F 46.4 °F 29.89 in NNW 1.2 mph   55 % 0.00 in
09:25 63.7 °F 46.2 °F 29.89 in SSE 2.0 mph 2.0 mph 53 % 0.00 in
09:30 64.5 °F 45.4 °F 29.89 in SE 3.5 mph 3.5 mph 50 % 0.00 in
09:35 65.0 °F 45.4 °F 29.89 in SSW 2.3 mph 2.3 mph 49 % 0.00 in
09:40 65.3 °F 45.6 °F 29.89 in NNW 1.2 mph 1.2 mph 49 % 0.00 in
09:45 65.7 °F 44.9 °F 29.89 in South 3.5 mph 3.5 mph 47 % 0.00 in
09:50 66.0 °F 46.3 °F 29.89 in SE 3.0 mph 3.0 mph 49 % 0.00 in
09:55 66.4 °F 46.1 °F 29.89 in NNW 2.3 mph 2.3 mph 48 % 0.00 in
10:00 67.1 °F 46.2 °F 29.89 in ESE 1.0 mph 1.0 mph 47 % 0.00 in
10:05 67.3 °F 46.4 °F 29.90 in SSE 2.3 mph 2.3 mph 47 % 0.00 in
10:10 67.6 °F 46.6 °F 29.90 in SSE 2.3 mph 2.3 mph 47 % 0.00 in
10:15 67.8 °F 46.8 °F 29.90 in SE 2.3 mph 2.3 mph 47 % 0.00 in
10:20 68.0 °F 46.4 °F 29.90 in South 3.5 mph 3.5 mph 46 % 0.00 in
10:25 68.7 °F 47.1 °F 29.89 in NNW 2.3 mph 2.3 mph 46 % 0.00 in
10:30 69.0 °F 47.4 °F 29.90 in SSW 2.3 mph 2.3 mph 46 % 0.00 in
10:35 69.4 °F 47.1 °F 29.90 in WNW 1.2 mph 1.2 mph 45 % 0.00 in
10:40 69.4 °F 46.5 °F 29.90 in West 1.2 mph   44 % 0.00 in
10:45 69.7 °F 48.0 °F 29.89 in SSE 4.0 mph 4.0 mph 46 % 0.00 in
10:50 70.2 °F 47.9 °F 29.89 in NNE 5.8 mph 5.8 mph 45 % 0.00 in
10:55 70.6 °F 47.0 °F 29.89 in SE 4.6 mph 4.6 mph 43 % 0.00 in
11:00 71.1 °F 48.1 °F 29.89 in SE 2.0 mph 2.0 mph 44 % 0.00 in
11:05 71.8 °F 48.7 °F 29.89 in SW 1.2 mph 1.2 mph 44 % 0.00 in
11:07 72.1 °F 48.4 °F 29.89 in SSE 2.0 mph 2.0 mph 43 % 0.00 in
11:12 72.5 °F 47.5 °F 29.89 in NW 3.5 mph 3.5 mph 41 % 0.00 in
11:17 72.7 °F 47.0 °F 29.89 in NE 3.5 mph 3.5 mph 40 % 0.00 in
11:22 72.8 °F 46.4 °F 29.89 in SE 3.5 mph 3.5 mph 39 % 0.00 in
11:27 73.4 °F 46.9 °F 29.89 in North 3.5 mph 3.5 mph 39 % 0.00 in
11:32 74.0 °F 46.1 °F 29.89 in ESE 1.2 mph 1.2 mph 37 % 0.00 in
11:37 74.8 °F 47.5 °F 29.89 in NW 2.0 mph 2.0 mph 38 % 0.00 in
11:42 75.5 °F 48.1 °F 29.89 in North 1.2 mph 1.2 mph 38 % 0.00 in
11:47 75.7 °F 46.1 °F 29.88 in SSW 2.3 mph 2.3 mph 35 % 0.00 in
11:52 76.1 °F 47.9 °F 29.88 in ENE 3.0 mph 3.0 mph 37 % 0.00 in
11:57 76.3 °F 47.4 °F 29.88 in ESE 2.3 mph 2.3 mph 36 % 0.00 in
12:02 76.7 °F 47.0 °F 29.88 in SSW 3.5 mph 3.5 mph 35 % 0.00 in
12:07 77.1 °F 45.8 °F 29.88 in SE 2.3 mph 2.3 mph 33 % 0.00 in
12:13 77.5 °F 46.9 °F 29.88 in SE 1.2 mph 1.2 mph 34 % 0.00 in
12:18 78.1 °F 47.4 °F 29.88 in SE 2.3 mph 2.3 mph 34 % 0.00 in
12:23 78.4 °F 46.9 °F 29.88 in SE 2.3 mph 2.3 mph 33 % 0.00 in
12:28 78.4 °F 47.7 °F 29.88 in East 1.2 mph 1.2 mph 34 % 0.00 in
12:33 78.7 °F 45.5 °F 29.87 in North 1.2 mph   31 % 0.00 in
12:38 78.8 °F 41.0 °F 29.87 in East 3.5 mph 3.5 mph 26 % 0.00 in
12:43 78.8 °F 45.6 °F 29.87 in ESE 1.2 mph 1.2 mph 31 % 0.00 in
12:48 78.7 °F 45.5 °F 29.87 in WNW 1.2 mph 1.2 mph 31 % 0.00 in
12:53 79.0 °F 44.9 °F 29.87 in West 2.3 mph 2.3 mph 30 % 0.00 in
12:58 78.8 °F 43.8 °F 29.87 in West 2.3 mph 2.3 mph 29 % 0.00 in
13:03 78.4 °F 44.4 °F 29.87 in Calm     30 % 0.00 in
13:08 78.5 °F 44.5 °F 29.87 in NW 2.3 mph 2.3 mph 30 % 0.00 in
13:13 78.8 °F 43.8 °F 29.86 in ESE 1.2 mph 1.2 mph 29 % 0.00 in
13:18 79.2 °F 45.1 °F 29.86 in NW 2.3 mph 2.3 mph 30 % 0.00 in
13:23 79.3 °F 46.9 °F 29.86 in ENE 1.2 mph   32 % 0.00 in
13:28 79.5 °F 43.5 °F 29.86 in NNE 2.3 mph 2.3 mph 28 % 0.00 in
13:33 79.5 °F 43.5 °F 29.86 in NW 3.5 mph 3.5 mph 28 % 0.00 in
13:38 79.1 °F 43.2 °F 29.85 in North 1.2 mph 1.2 mph 28 % 0.00 in
13:43 79.4 °F 47.0 °F 29.85 in NW 2.3 mph 2.3 mph 32 % 0.00 in
13:48 79.4 °F 46.1 °F 29.85 in NW 3.5 mph 3.5 mph 31 % 0.00 in
13:53 79.5 °F 45.3 °F 29.85 in WNW 2.3 mph 2.3 mph 30 % 0.00 in
13:58 79.9 °F 47.4 °F 29.85 in NW 4.0 mph 4.0 mph 32 % 0.00 in
14:03 79.8 °F 43.8 °F 29.84 in West 3.5 mph 3.5 mph 28 % 0.00 in
14:08 79.9 °F 44.8 °F 29.84 in WNW 3.5 mph 3.5 mph 29 % 0.00 in
14:13 79.9 °F 43.9 °F 29.84 in NW 3.5 mph 3.5 mph 28 % 0.00 in
14:18 79.7 °F 44.6 °F 29.84 in NW 3.5 mph 3.5 mph 29 % 0.00 in
14:23 79.8 °F 44.7 °F 29.84 in NW 2.3 mph 2.3 mph 29 % 0.00 in
14:28 79.9 °F 45.7 °F 29.84 in NNE 2.3 mph 2.3 mph 30 % 0.00 in
14:33 79.7 °F 44.6 °F 29.84 in West 2.3 mph 2.3 mph 29 % 0.00 in
14:38 79.7 °F 44.6 °F 29.84 in NW 3.5 mph 3.5 mph 29 % 0.00 in
14:43 79.6 °F 45.4 °F 29.84 in NW 2.3 mph 2.3 mph 30 % 0.00 in
14:48 79.6 °F 44.5 °F 29.84 in NW 4.6 mph 4.6 mph 29 % 0.00 in
14:53 79.7 °F 44.6 °F 29.84 in NW 2.3 mph 2.3 mph 29 % 0.00 in
14:58 79.7 °F 43.7 °F 29.84 in WNW 4.6 mph 4.6 mph 28 % 0.00 in
15:03 79.3 °F 45.2 °F 29.84 in NNW 4.6 mph 4.6 mph 30 % 0.00 in
15:08 79.3 °F 46.0 °F 29.84 in NW 3.5 mph 3.5 mph 31 % 0.00 in
15:13 79.1 °F 45.9 °F 29.83 in North 3.5 mph 3.5 mph 31 % 0.00 in
15:18 79.1 °F 45.0 °F 29.83 in NW 3.5 mph 3.5 mph 30 % 0.00 in
15:23 79.2 °F 44.2 °F 29.83 in NW 2.3 mph 2.3 mph 29 % 0.00 in
15:28 79.3 °F 45.2 °F 29.83 in North 3.5 mph 3.5 mph 30 % 0.00 in
15:33 79.7 °F 46.4 °F 29.83 in NW 2.3 mph 2.3 mph 31 % 0.00 in
15:38 79.6 °F 43.6 °F 29.83 in NNW 3.5 mph 3.5 mph 28 % 0.00 in
15:43 79.7 °F 43.7 °F 29.83 in North 2.3 mph 2.3 mph 28 % 0.00 in
15:48 79.9 °F 42.9 °F 29.83 in NW 3.5 mph 3.5 mph 27 % 0.00 in
15:53 79.7 °F 41.8 °F 29.83 in NW 2.3 mph 2.3 mph 26 % 0.00 in
16:03 79.5 °F 40.6 °F 29.83 in NW 4.6 mph 4.6 mph 25 % 0.00 in
16:08 79.4 °F 41.5 °F 29.83 in NW 3.5 mph 3.5 mph 26 % 0.00 in
16:18 79.0 °F 41.2 °F 29.83 in WNW 3.5 mph 3.5 mph 26 % 0.00 in
16:23 79.0 °F 42.2 °F 29.83 in WNW 3.5 mph 3.5 mph 27 % 0.00 in
16:28 78.9 °F 43.0 °F 29.83 in East 2.3 mph 2.3 mph 28 % 0.00 in
16:33 78.9 °F 41.1 °F 29.83 in WNW 3.5 mph 3.5 mph 26 % 0.00 in
16:38 78.8 °F 41.0 °F 29.83 in NW 4.6 mph 4.6 mph 26 % 0.00 in
16:43 78.8 °F 41.0 °F 29.83 in WNW 3.5 mph 3.5 mph 26 % 0.00 in
16:48 78.7 °F 40.9 °F 29.83 in NW 4.6 mph 4.6 mph 26 % 0.00 in
16:53 78.5 °F 39.7 °F 29.83 in WNW 3.5 mph 3.5 mph 25 % 0.00 in
16:58 78.3 °F 40.6 °F 29.83 in NW 3.5 mph 3.5 mph 26 % 0.00 in
17:03 78.0 °F 41.3 °F 29.83 in NW 3.5 mph 3.5 mph 27 % 0.00 in
17:08 77.7 °F 42.9 °F 29.83 in NNE 3.5 mph 3.5 mph 29 % 0.00 in
17:13 77.5 °F 42.7 °F 29.83 in WNW 3.5 mph 3.5 mph 29 % 0.00 in
17:18 77.2 °F 45.0 °F 29.83 in WNW 3.5 mph 3.5 mph 32 % 0.00 in
17:23 76.8 °F 45.5 °F 29.83 in NW 3.5 mph 3.5 mph 33 % 0.00 in
17:28 76.5 °F 45.2 °F 29.83 in NE 6.0 mph 6.0 mph 33 % 0.00 in
17:34 76.2 °F 45.8 °F 29.83 in WNW 4.0 mph 4.0 mph 34 % 0.00 in
17:38 75.8 °F 46.2 °F 29.84 in NW 3.5 mph 3.5 mph 35 % 0.00 in
17:44 75.4 °F 45.8 °F 29.84 in WNW 3.0 mph 3.0 mph 35 % 0.00 in
17:54 74.4 °F 46.4 °F 29.84 in WNW 4.6 mph 4.6 mph 37 % 0.00 in
17:59 74.0 °F 46.1 °F 29.84 in NW 2.3 mph 2.3 mph 37 % 0.00 in
18:04 73.5 °F 46.3 °F 29.84 in NW 2.3 mph 2.3 mph 38 % 0.00 in
18:09 73.0 °F 45.9 °F 29.84 in NW 2.0 mph 2.0 mph 38 % 0.00 in
18:14 72.6 °F 46.2 °F 29.84 in NW 2.3 mph 2.3 mph 39 % 0.00 in
18:19 72.1 °F 45.8 °F 29.84 in NW 2.3 mph 2.3 mph 39 % 0.00 in
18:24 71.7 °F 46.1 °F 29.84 in NW 2.3 mph 2.3 mph 40 % 0.00 in
18:29 71.2 °F 46.3 °F 29.84 in NW 2.3 mph 2.3 mph 41 % 0.00 in
18:34 70.8 °F 46.6 °F 29.85 in West 1.2 mph 1.2 mph 42 % 0.00 in
18:39 70.4 °F 46.2 °F 29.85 in NW 2.3 mph 2.3 mph 42 % 0.00 in
18:44 70.4 °F 46.2 °F 29.85 in West 3.5 mph 3.5 mph 42 % 0.00 in
18:49 70.3 °F 46.1 °F 29.85 in WNW 3.5 mph 3.5 mph 42 % 0.00 in
18:54 70.1 °F 45.9 °F 29.85 in NW 2.3 mph 2.3 mph 42 % 0.00 in
18:59 69.9 °F 45.8 °F 29.85 in NW 3.0 mph 3.0 mph 42 % 0.00 in
19:04 69.7 °F 45.6 °F 29.86 in NNW 3.5 mph 3.5 mph 42 % 0.00 in
19:10 69.6 °F 45.5 °F 29.86 in WNW 3.5 mph 3.5 mph 42 % 0.00 in
19:15 69.4 °F 45.3 °F 29.86 in NW 2.3 mph 2.3 mph 42 % 0.00 in
19:25 68.8 °F 45.4 °F 29.86 in NW 2.3 mph 2.3 mph 43 % 0.00 in
19:30 68.6 °F 45.2 °F 29.87 in NW 2.3 mph 2.3 mph 43 % 0.00 in
19:35 68.3 °F 45.5 °F 29.87 in NW 2.3 mph 2.3 mph 44 % 0.00 in
19:40 68.1 °F 45.4 °F 29.87 in NW 2.3 mph 2.3 mph 44 % 0.00 in
19:45 67.8 °F 45.7 °F 29.88 in NNW 1.2 mph 1.2 mph 45 % 0.00 in
19:55 67.2 °F 46.3 °F 29.88 in WNW 2.3 mph 2.3 mph 47 % 0.00 in
20:00 66.7 °F 46.4 °F 29.88 in NNW 2.3 mph 2.3 mph 48 % 0.00 in
20:05 66.4 °F 46.1 °F 29.88 in WNW 3.5 mph 3.5 mph 48 % 0.00 in
20:10 66.1 °F 46.4 °F 29.89 in Calm     49 % 0.00 in
20:15 65.7 °F 46.5 °F 29.89 in NW 1.2 mph   50 % 0.00 in
20:20 65.4 °F 46.3 °F 29.89 in Calm     50 % 0.00 in
20:21 65.3 °F 46.2 °F 29.89 in Calm     50 % 0.00 in
20:26 65.0 °F 46.9 °F 29.89 in Calm     52 % 0.00 in
20:31 64.7 °F 46.7 °F 29.89 in Calm     52 % 0.00 in
20:36 64.3 °F 46.8 °F 29.89 in Calm     53 % 0.00 in
20:41 64.1 °F 46.6 °F 29.89 in NW 2.3 mph 2.3 mph 53 % 0.00 in
20:46 63.9 °F 46.4 °F 29.89 in NNW 1.2 mph   53 % 0.00 in
20:51 63.9 °F 46.4 °F 29.90 in NW 1.2 mph 1.2 mph 53 % 0.00 in
20:56 63.8 °F 45.8 °F 29.90 in Calm     52 % 0.00 in
21:01 63.6 °F 46.1 °F 29.90 in NNW 1.2 mph 1.2 mph 53 % 0.00 in
21:06 63.5 °F 45.6 °F 29.90 in NW 1.2 mph 1.2 mph 52 % 0.00 in
21:11 63.2 °F 45.8 °F 29.91 in NW 1.2 mph 1.2 mph 53 % 0.00 in
21:16 63.0 °F 45.1 °F 29.91 in WNW 1.2 mph 1.2 mph 52 % 0.00 in
21:21 62.7 °F 45.3 °F 29.91 in Calm     53 % 0.00 in
21:26 62.4 °F 45.0 °F 29.91 in NNE 1.2 mph   53 % 0.00 in
21:32 62.2 °F 45.3 °F 29.91 in NNE 1.2 mph   54 % 0.00 in
21:37 62.0 °F 45.2 °F 29.91 in Calm     54 % 0.00 in
21:42 61.7 °F 45.4 °F 29.91 in Calm     55 % 0.00 in
21:47 61.2 °F 45.4 °F 29.92 in Calm     56 % 0.00 in
21:52 60.6 °F 45.7 °F 29.92 in Calm     58 % 0.00 in
21:57 60.0 °F 46.1 °F 29.92 in Calm     60 % 0.00 in
22:02 59.5 °F 45.6 °F 29.92 in Calm     60 % 0.00 in
22:07 59.1 °F 46.1 °F 29.93 in Calm     62 % 0.00 in
22:12 58.7 °F 45.7 °F 29.93 in Calm     62 % 0.00 in
22:17 58.4 °F 46.3 °F 29.93 in Calm     64 % 0.00 in
22:22 58.0 °F 46.3 °F 29.93 in Calm     65 % 0.00 in
22:27 57.5 °F 45.8 °F 29.93 in Calm     65 % 0.00 in
22:32 57.1 °F 45.8 °F 29.93 in Calm     66 % 0.00 in
22:37 56.7 °F 45.9 °F 29.93 in Calm     67 % 0.00 in
22:42 56.5 °F 46.1 °F 29.93 in Calm     68 % 0.00 in
22:47 56.5 °F 45.7 °F 29.93 in Calm     67 % 0.00 in
22:52 56.7 °F 45.5 °F 29.93 in Calm     66 % 0.00 in
22:57 56.7 °F 45.5 °F 29.93 in Calm     66 % 0.00 in
23:02 56.5 °F 45.7 °F 29.94 in Calm     67 % 0.00 in
23:07 56.4 °F 46.0 °F 29.94 in WNW 1.0 mph   68 % 0.00 in
23:12 56.2 °F 45.8 °F 29.94 in Calm     68 % 0.00 in
23:17 56.2 °F 45.4 °F 29.94 in Calm     67 % 0.00 in
23:22 56.3 °F 44.7 °F 29.94 in Calm     65 % 0.00 in
23:27 56.1 °F 44.1 °F 29.94 in Calm     64 % 0.00 in
23:32 56.2 °F 44.6 °F 29.94 in Calm     65 % 0.00 in
23:37 56.0 °F 44.4 °F 29.94 in Calm     65 % 0.00 in
23:42 55.7 °F 43.7 °F 29.95 in Calm     64 % 0.00 in
23:47 55.4 °F 44.2 °F 29.95 in Calm     66 % 0.00 in
23:52 55.1 °F 43.9 °F 29.95 in Calm     66 % 0.00 in
23:57 54.9 °F 44.1 °F 29.95 in Calm     67 % 0.00 in
Park Place, Exeter, Tulare County, California, USA
Compliments of Weather Underground - 2.5 mb